x

Great Slave Lake (45141) Wave Buoy

12:00am - Wed 17th Sep 2014 All times are UTC.

  • Sig Wave height 3.6ft
  • Peak Period 4s
  • Wind
    18mph, 22mph gusts
  • Sea Temp 47°f
  • Air Temp 48°f
  • Sea Pressure 1014.4mb

More Historic Weather Station data

Upgrade to MSW Pro to gain access to the past 30 days of data for over 8000 Wavebouys and Weather Stations around the globe.

Join Pro

Comparision Forecast

View Surf forecast
   
Wed 09/17 12:00am 3.5ft 4s 18 22 mph 1014.4mb 47f 48f
Tue 09/16 11:00pm 3.5ft 4s 18 22 mph 1015.3mb 47f 47f
10:00pm 3.5ft 5s 18 22 mph 1016mb 47f 46f
8:00pm 4ft 5s 20 25 mph 1017.2mb 47f 43f
7:00pm 3.5ft 5s 18 22 mph 1017.6mb 47f 42f
6:00pm 3.5ft 5s 18 20 mph 1017.8mb 47f 42f
5:00pm 4ft 5s 18 20 mph 1017.8mb 47f 41f
4:00pm 4ft 5s 18 22 mph 1018mb 47f 41f
3:00pm 4.5ft 5s 20 22 mph 1017.7mb 47f 40f
2:00pm 4ft 5s 20 25 mph 1017.7mb 47f 41f
1:00pm 4ft 5s 20 25 mph 1017.7mb 47f 41f
12:00pm 4ft 5s 18 22 mph 1017.6mb 47f 42f
11:00am 4ft 5s 18 20 mph 1017.8mb 47f 42f
10:00am  -   -  18
mph
1017.8mb 46f 42f
9:00am 4.5ft 5s 18 22 mph 1017.7mb 46f 42f
8:00am  -   -  20
mph
1017.9mb - 43f
7:00am 5ft 5s 20 25 mph 1017.8mb 47f 43f
6:00am 4.5ft 5s 22 27 mph 1017.4mb 47f 44f
5:00am 4.5ft 5s 22 25 mph 1017mb 47f 44f
4:00am 4.5ft 5s 22 25 mph 1017mb 47f 44f
3:00am 4.5ft 5s 20 25 mph 1016.9mb 48f 45f
2:00am 4.5ft 6s 22 25 mph 1016.5mb 48f 45f
1:00am 4.5ft 5s 20 25 mph 1016.6mb 48f 45f
12:00am 4ft 5s 20 22 mph 1016.8mb 48f 45f
Mon 09/15 11:00pm 4.5ft 5s 20 25 mph 1016.6mb 48f 45f
10:00pm 4.5ft 5s 20 25 mph 1016.8mb 48f 44f
9:00pm 4.5ft 5s 22 27 mph 1016.9mb 48f 44f
8:00pm 4.5ft 5s 22 27 mph 1016.7mb 48f 43f
7:00pm 4ft 5s 20 27 mph 1016.7mb 48f 42f
6:00pm  -   -  20
mph
- - -
5:00pm 4.5ft 5s 20
mph
1016.6mb 48f 42f
4:00pm 4.5ft 5s 20 22 mph 1016.1mb 48f 42f
2:00pm 4.5ft 5s 22 27 mph 1015.9mb 49f 43f
1:00pm 4.5ft 6s 22 27 mph 1015.1mb 49f 44f
11:00am  -   -  22
mph
1014.8mb - 45f
10:00am 3.5ft 4s 18 22 mph 1014.8mb 49f 46f
9:00am  -   -  18
mph
- - -
8:00am 2.5ft 15s 20 25 mph 1014mb 49f 47f
7:00am 1.6ft 15s 18 22 mph 1014.1mb 50f 48f
6:00am 0.3ft 3s 13 16 mph 1014mb 50f 49f
5:00am 0.7ft 3s 7 9 mph 1013.6mb 50f 49f
4:00am 0.7ft 3s 7 9 mph 1013.5mb 50f 50f
3:00am 0.3ft 2s 9 11 mph 1013.6mb 50f 49f
2:00am 0.3ft 2s 9 11 mph 1013.5mb 50f 49f
1:00am 0.3ft 2s 7 9 mph 1013.6mb 50f 49f
12:00am 0.3ft 3s 7
mph
1013.7mb 51f 49f
Sun 09/14 11:00pm 0.3ft 3s 7 9 mph 1013.6mb 51f 50f
10:00pm 0.3ft 3s 4 7 mph 1013.5mb 51f 50f
9:00pm 0.7ft 15s 4 7 mph 1013.4mb 51f 51f
8:00pm 0.7ft 14s 2
mph
1013.1mb 51f 51f
7:00pm 0.7ft 3s 2 4 mph 1012.8mb 50f 50f
6:00pm 1ft 15s 4 7 mph 1013mb 50f 50f
5:00pm 1ft 3s 7 9 mph 1012.9mb 49f 49f
4:00pm 1ft 15s 9 11 mph 1012.7mb 49f 49f
3:00pm 1ft 3s 9
mph
1012.7mb 49f 50f
2:00pm 0.7ft 3s 9
mph
1012.6mb 49f 50f
1:00pm 0.7ft 3s 9
mph
1012.5mb 49f 50f
12:00pm 0.7ft 15s 7
mph
1012.5mb 49f 50f
11:00am 1ft 14s 7 9 mph 1012.6mb 49f 49f
10:00am 1.3ft 3s 9
mph
1012.5mb 49f 49f
9:00am 1ft 14s 9
mph
1012.6mb 49f 49f
8:00am 1ft 15s 9 11 mph 1012.4mb 49f 50f
7:00am 0.7ft 2s 9 11 mph 1012.4mb 49f 50f
6:00am 0.3ft 3s 7 9 mph 1012.5mb 49f 51f
5:00am 0.7ft 3s 9
mph
1012.6mb 49f 51f
4:00am 0.7ft 15s 7
mph
1012.6mb 49f 52f
3:00am 0.7ft 12s 9
mph
1012.7mb 49f 51f
2:00am 0.7ft 15s 9 11 mph 1012.9mb 49f 51f
1:00am 0.7ft 2s 9 11 mph 1013.3mb 49f 51f
12:00am 1ft 15s 9 11 mph 1013.7mb 49f 50f
Sat 09/13 11:00pm 0.7ft 3s 11 13 mph 1014.1mb 49f 49f
10:00pm 1ft 14s 9 11 mph 1014.6mb 49f 49f
9:00pm 1.3ft 15s 9
mph
1014.9mb 49f 49f
8:00pm 1.6ft 15s 11
mph
1015.4mb 49f 48f
7:00pm 2.5ft 15s 13 16 mph 1015.9mb 49f 47f
6:00pm 2.5ft 4s 16 18 mph 1016.5mb 49f 46f
5:00pm 2.5ft 14s 16 18 mph 1017.1mb 49f 44f
4:00pm 2.5ft 4s 18 20 mph 1017.9mb 49f 43f
3:00pm 2.5ft 15s 16 18 mph 1018.7mb 49f 42f
2:00pm 2.5ft 15s 16 18 mph 1019.3mb 48f 42f
1:00pm 2ft 14s 16 18 mph 1020.1mb 48f 43f
12:00pm 1.6ft 14s 11 16 mph 1020.7mb 48f 44f
11:00am 1.3ft 15s 11 13 mph 1021.1mb 48f 43f
10:00am 1ft 15s 9 11 mph 1021.8mb 48f 44f
9:00am 0.7ft 14s 7 9 mph 1022.1mb 48f 44f
8:00am 0.7ft 14s 4 7 mph 1022.5mb 48f 44f
7:00am 1ft 14s 4 7 mph 1022.9mb 48f 44f
6:00am 1ft 4s 7 9 mph 1023.1mb 48f 44f
5:00am 1ft 15s 4
mph
1023.4mb 48f 44f
4:00am 1.3ft 3s 7 9 mph 1023.7mb 49f 44f
3:00am 1.3ft 4s 7 9 mph 1024mb 49f 44f
2:00am 1.6ft 15s 7 9 mph 1024.3mb 49f 44f